KSNY/SNY METAR and TAF weather

Enter ICAO airport designator
Station Type Date Time Source
KSNY METAR 2022/11/27 08:06 UTC NOAA

KSNY 270806Z AUTO 36011KT 3SM -SN BR BKN007 OVC031 M01/M02 A2995 RMK AO2 P0000 T10061022


Station Type Date Time Source
KSNY Decoded METAR 2022/11/27 08:06 UTC NOAA

SIDNEY MUNICIPAL AIRPORT, NE, United States (KSNY) 41-06N 102-59W 1307M
Nov 27, 2022 - 03:06 AM EST / 2022.11.27 0806 UTC
Wind: from the N (360 degrees) at 13 MPH (11 KT):0
Visibility: 3 mile(s):0
Sky conditions: overcast
Weather: light snow; mist
Precipitation last hour: A trace
Temperature: 30.9 F (-0.6 C)
Windchill: 21 F (-6 C):1
Dew Point: 28.0 F (-2.2 C)
Relative Humidity: 88%
Pressure (altimeter): 29.95 in. Hg (1014 hPa)
ob: KSNY 270806Z AUTO 36011KT 3SM -SN BR BKN007 OVC031 M01/M02 A2995 RMK AO2 P0000 T10061022
cycle: 8

Station Type Date Time Source
KSNY TAF 2022/11/27 06:27 UTC NOAA

TAF KSNY 270524Z 2706/2806 36013G21KT P6SM -SN BKN020 OVC040
FM270900 34012KT P6SM VCSH BKN035
FM271300 30010KT P6SM BKN070
FM271600 25010KT P6SM FEW200
FM272100 24017G25KT P6SM FEW200
FM280500 26014G22KT P6SM OVC200

Example: see airport list